Terminal Aerodrome Forecast
Issued by NWS Grand Forks, ND

Home | Current Version | Previous Version | Graphics & Text | Print | Product List | Glossary On
Versions: 1 2 3 4 5 6 7 8 9 10 11 12 13 14 15 16
000
FTUS43 KFGF 180900 AAB
TAFFAR
TAF AMD
KFAR 180908Z 1809/1906 06006KT P6SM SKC
     FM181015 11006KT P6SM BKN006
      TEMPO 1811/1813 3SM BR OVC005
     FM181600 15016KT P6SM SCT250=

USA.gov is the U.S. government's official web portal to all federal, state and local government web resources and services.